Bookmark and Share
Track history (hours):
 

Natures Way Challenger

More information available from US FCC via Universal Licensing System and Coast Guard Vessel Documentation Center.

Last reported at 2014-Apr-01 19:12 UTC. Time now 2014-Apr-16 05:26 UTC.
Position N 29°41' W 091°28'.
Warning: this ship's position is 14 days out of date.

Length 14 m.

Type: Towing. MMSI: 367483050.

NotesDate/timePositionNaut miles runAvg speedWind from/ knotsBaromVisibWave heightAir tempDewpointWater temp
2014-Apr-01 19:12N 29°41' W 091°28'6 2.2
2014-Apr-01 16:31N 29°39' W 091°22'4 4.2
2014-Apr-01 15:33N 29°39' W 091°17'4 4.4
2014-Apr-01 14:33N 29°41' W 091°13'3 2.9
2014-Apr-01 13:34N 29°44' W 091°11'1 1.0
2014-Apr-01 12:34N 29°44' W 091°11'0 0.1
2014-Apr-01 11:34N 29°44' W 091°11'0 0.0
2014-Apr-01 10:33N 29°44' W 091°11'0 0.0
2014-Apr-01 09:33N 29°44' W 091°11'0 0.1
2014-Apr-01 08:33N 29°44' W 091°11'1 1.4
2014-Apr-01 07:33N 29°46' W 091°11'  
2014-Mar-27 11:31N 29°52' W 091°12'3 3.4
2014-Mar-27 10:33N 29°49' W 091°10'3 2.7
2014-Mar-27 09:33N 29°46' W 091°11'2 2.5
2014-Mar-27 08:33N 29°44' W 091°11'3 2.7
2014-Mar-27 07:33N 29°42' W 091°13'3 2.9
2014-Mar-27 06:33N 29°39' W 091°15'3 3.5
2014-Mar-27 05:33N 29°39' W 091°19'4 3.6
2014-Mar-27 04:32N 29°39' W 091°23'3 3.5
2014-Mar-27 03:33N 29°40' W 091°27'2 0.6
2014-Mar-27 00:32N 29°41' W 091°28'  

Dump ship's entire track history

sailing weather and tide predictions

Natures Way Challenger — WDF7294 — position and weather